Other Surface Observations
Issued by NWS Great Falls, MT

Home | Current Version | Previous Version | Text Only | Print | Product List | Glossary On
Versions: 1 2 3 4 5 6 7 8 9 10 11 12 13 14 15 16 17 18 19 20 21 22 23 24 25 26 27 28 29 30 31 32 33 34 35 36 37 38 39 40 41 42 43 44 45 46 47 48 49 50
000
SXUS55 KTFX 240044
OSOTFX
AREA AWOS OBSERVATIONS
NATIONAL WEATHER SERVICE GREAT FALLS MT
0644 PM MDT TUE MAY 23 2017

METAR KPWD 240045Z AUTO 15014KT 9SM 21/00 A2991 RMK PLENTYWOOD
METAR KPO1 240045Z AUTO 15006KT 10SM 22/M01 A2990 RMK POPLAR
METAR K1S3 240045Z AUTO 14005KT 10SM 21/00 A2993 RMK FORSYTH
METAR KS71 240045Z AUTO 17006KT 10SM 27/06 A2975 RMK CHINOOK
METAR K38S 240045Z AUTO 36003KT 10SM 24/07 A2993 RMK DEER LODGE
METAR K3U3 240045Z AUTO 29010G16KT 25/M04 A2992 RMK ANACONDA
METAR K6S5 240045Z AUTO 21009KT 3SM 27/04 A2987 RMK HAMILTON
METAR K88M 240045Z AUTO 19013G18KT 10SM 27/02 A2972 RMK EUREKA



USA.gov is the U.S. government's official web portal to all federal, state and local government web resources and services.